createdAt,value
2018-12-08T05:00:29.283Z,0.00
2018-12-08T05:01:29.371Z,0.00
2018-12-08T05:02:29.256Z,0.00
2018-12-08T05:03:29.240Z,0.00
2018-12-08T05:04:29.227Z,0.00
2018-12-08T05:05:29.268Z,0.00
2018-12-08T05:06:29.205Z,0.00
2018-12-08T05:07:29.197Z,0.00
2018-12-08T05:08:29.186Z,0.00
2018-12-08T05:09:29.176Z,0.00
2018-12-08T05:10:29.175Z,0.00
2018-12-08T05:11:29.151Z,0.00
2018-12-08T05:12:29.139Z,0.00
2018-12-08T05:13:29.125Z,0.00
2018-12-08T05:14:29.114Z,0.00
2018-12-08T05:15:29.123Z,0.00
2018-12-08T05:16:29.094Z,0.00
2018-12-08T05:17:29.084Z,0.00
2018-12-08T05:18:29.071Z,0.00
2018-12-08T05:19:29.059Z,0.00
2018-12-08T05:20:29.058Z,0.00
2018-12-08T05:21:29.036Z,0.00
2018-12-08T05:22:29.026Z,0.00
2018-12-08T05:23:29.012Z,0.00
2018-12-08T05:24:29.002Z,0.00
2018-12-08T05:25:29.002Z,0.00
2018-12-08T05:26:28.981Z,0.00
2018-12-08T05:27:28.968Z,0.00
2018-12-08T05:28:28.956Z,0.00
2018-12-08T05:29:28.945Z,0.00
2018-12-08T05:30:28.952Z,0.00
2018-12-08T05:31:28.922Z,0.00
2018-12-08T05:32:28.911Z,0.00
2018-12-08T05:33:28.909Z,0.00
2018-12-08T05:34:28.888Z,0.00
2018-12-08T05:35:28.891Z,0.00
2018-12-08T05:36:28.866Z,0.00
2018-12-08T05:37:28.854Z,0.00
2018-12-08T05:38:28.844Z,0.00
2018-12-08T05:39:28.840Z,0.00
2018-12-08T05:40:28.837Z,0.00
2018-12-08T05:41:28.810Z,0.00
2018-12-08T05:42:28.798Z,0.00
2018-12-08T05:43:28.787Z,0.00
2018-12-08T05:44:28.772Z,0.00
2018-12-08T05:45:28.776Z,0.00
2018-12-08T05:46:28.749Z,0.00
2018-12-08T05:47:28.738Z,0.00
2018-12-08T05:48:28.748Z,0.00
2018-12-08T05:49:28.715Z,0.00
2018-12-08T05:50:28.720Z,0.00
2018-12-08T05:51:28.692Z,0.00
2018-12-08T05:52:28.682Z,0.00
2018-12-08T05:53:28.675Z,0.00
2018-12-08T05:54:28.663Z,0.00
2018-12-08T05:55:28.676Z,0.00
2018-12-08T05:56:28.637Z,0.00
2018-12-08T05:57:28.627Z,0.00
2018-12-08T05:58:28.699Z,0.00
2018-12-08T05:59:28.619Z,0.00
2018-12-08T06:00:28.613Z,0.00
2018-12-08T06:01:28.580Z,0.00
2018-12-08T06:02:28.573Z,0.00
2018-12-08T06:03:28.563Z,0.00
2018-12-08T06:04:28.543Z,0.00
2018-12-08T06:05:28.546Z,0.00
2018-12-08T06:06:28.523Z,0.00
2018-12-08T06:07:28.513Z,0.00
2018-12-08T06:08:28.502Z,0.00
2018-12-08T06:09:28.491Z,0.00
2018-12-08T06:10:28.490Z,0.00
2018-12-08T06:11:28.467Z,0.00
2018-12-08T06:12:28.455Z,0.00
2018-12-08T06:13:28.448Z,0.00
2018-12-08T06:14:28.433Z,0.00
2018-12-08T06:15:28.441Z,0.00
2018-12-08T06:16:28.411Z,0.00
2018-12-08T06:17:28.399Z,0.00
2018-12-08T06:18:28.477Z,0.00
2018-12-08T06:19:28.376Z,0.00
2018-12-08T06:20:28.378Z,0.00
2018-12-08T06:21:28.353Z,0.00
2018-12-08T06:22:28.345Z,0.00
2018-12-08T06:23:28.328Z,0.00
2018-12-08T06:24:28.322Z,0.00
2018-12-08T06:25:28.322Z,0.00
2018-12-08T06:26:28.299Z,0.00
2018-12-08T06:27:28.286Z,0.00
2018-12-08T06:28:28.277Z,0.00
2018-12-08T06:29:28.263Z,0.00
2018-12-08T06:30:28.266Z,0.00
2018-12-08T06:31:28.241Z,0.00
2018-12-08T06:32:28.229Z,0.00
2018-12-08T06:33:28.222Z,0.00
2018-12-08T06:34:28.210Z,4.00
2018-12-08T06:35:28.214Z,8.00
2018-12-08T06:36:28.188Z,4.00
2018-12-08T06:37:28.173Z,0.00
2018-12-08T06:38:28.167Z,4.00
2018-12-08T06:39:28.151Z,4.00
2018-12-08T06:40:29.385Z,8.00
2018-12-08T06:41:28.129Z,8.00
2018-12-08T06:42:28.119Z,12.00
2018-12-08T06:43:28.110Z,8.00
2018-12-08T06:44:28.096Z,8.00
2018-12-08T06:45:28.095Z,12.00
2018-12-08T06:46:28.073Z,16.00
2018-12-08T06:47:28.061Z,16.00
2018-12-08T06:48:28.045Z,12.00
2018-12-08T06:49:28.035Z,16.00
2018-12-08T06:50:28.058Z,16.00
2018-12-08T06:51:28.017Z,20.00
2018-12-08T06:52:28.005Z,20.00
2018-12-08T06:53:27.993Z,16.00
2018-12-08T06:54:27.980Z,28.00
2018-12-08T06:55:27.971Z,24.00
2018-12-08T06:56:27.973Z,20.00
2018-12-08T06:57:27.947Z,28.00
2018-12-08T06:58:27.933Z,28.00
2018-12-08T06:59:27.926Z,28.00
2018-12-08T07:00:27.911Z,32.00
2018-12-08T07:01:27.914Z,32.00
2018-12-08T07:02:27.886Z,32.00
2018-12-08T07:03:27.876Z,36.00
2018-12-08T07:04:27.867Z,52.00
2018-12-08T07:05:27.856Z,52.00
2018-12-08T07:06:27.858Z,84.00
2018-12-08T07:07:27.833Z,60.00
2018-12-08T07:08:27.823Z,72.00
2018-12-08T07:09:27.810Z,68.00
2018-12-08T07:10:27.798Z,60.00
2018-12-08T07:11:27.802Z,64.00
2018-12-08T07:12:28.322Z,80.00
2018-12-08T07:13:27.765Z,84.00
2018-12-08T07:14:27.752Z,92.00
2018-12-08T07:15:27.740Z,100.00
2018-12-08T07:16:27.760Z,80.00
2018-12-08T07:17:27.718Z,96.00
2018-12-08T07:18:27.710Z,96.00
2018-12-08T07:19:27.695Z,140.00
2018-12-08T07:20:27.687Z,152.00
2018-12-08T07:21:27.685Z,160.00
2018-12-08T07:22:27.665Z,188.00
2018-12-08T07:23:27.646Z,208.00
2018-12-08T07:24:27.640Z,204.00
2018-12-08T07:25:27.637Z,212.00
2018-12-08T07:26:27.628Z,220.00
2018-12-08T07:27:27.611Z,236.00
2018-12-08T07:28:27.593Z,244.00
2018-12-08T07:29:27.582Z,256.00
2018-12-08T07:30:27.571Z,280.00
2018-12-08T07:31:27.572Z,340.00
2018-12-08T07:32:27.547Z,340.00
2018-12-08T07:33:27.538Z,328.00
2018-12-08T07:34:27.526Z,372.00
2018-12-08T07:35:27.520Z,380.00
2018-12-08T07:36:27.519Z,364.00
2018-12-08T07:37:27.496Z,336.00
2018-12-08T07:38:27.480Z,372.00
2018-12-08T07:39:27.474Z,368.00
2018-12-08T07:40:27.457Z,412.00
2018-12-08T07:41:27.461Z,388.00
2018-12-08T07:42:27.435Z,424.00
2018-12-08T07:43:27.425Z,424.00
2018-12-08T07:44:27.414Z,336.00
2018-12-08T07:45:27.402Z,340.00
2018-12-08T07:46:27.422Z,388.00
2018-12-08T07:47:27.384Z,376.00
2018-12-08T07:48:27.370Z,500.00
2018-12-08T07:49:27.372Z,396.00
2018-12-08T07:50:27.337Z,320.00
2018-12-08T07:51:27.345Z,324.00
2018-12-08T07:52:27.322Z,336.00
2018-12-08T07:53:27.318Z,400.00
2018-12-08T07:54:27.822Z,396.00
2018-12-08T07:55:27.289Z,496.00
2018-12-08T07:56:27.289Z,608.00
2018-12-08T07:57:27.265Z,748.00
2018-12-08T07:58:27.253Z,964.00
2018-12-08T07:59:27.242Z,1092.00
2018-12-08T08:00:27.227Z,1464.00
2018-12-08T08:01:27.231Z,1776.00
2018-12-08T08:02:27.204Z,1476.00
2018-12-08T08:03:27.195Z,1704.00
2018-12-08T08:04:27.177Z,1840.00
2018-12-08T08:05:27.162Z,2164.00
2018-12-08T08:06:27.271Z,1688.00
2018-12-08T08:07:27.148Z,1520.00
2018-12-08T08:08:27.136Z,1484.00
2018-12-08T08:09:27.125Z,1268.00
2018-12-08T08:10:27.112Z,1332.00
2018-12-08T08:11:27.122Z,1316.00
2018-12-08T08:12:27.091Z,1332.00
2018-12-08T08:13:27.085Z,1420.00
2018-12-08T08:14:27.069Z,1404.00
2018-12-08T08:15:27.102Z,1276.00
2018-12-08T08:16:27.058Z,1124.00
2018-12-08T08:17:27.045Z,1124.00
2018-12-08T08:18:27.030Z,1144.00
2018-12-08T08:19:27.012Z,996.00
2018-12-08T08:20:27.002Z,940.00
2018-12-08T08:21:27.003Z,820.00
2018-12-08T08:22:26.979Z,700.00
2018-12-08T08:23:26.967Z,728.00
2018-12-08T08:24:26.964Z,756.00
2018-12-08T08:25:26.946Z,724.00
2018-12-08T08:26:26.944Z,708.00
2018-12-08T08:27:26.933Z,748.00
2018-12-08T08:28:26.913Z,812.00
2018-12-08T08:29:26.903Z,872.00
2018-12-08T08:30:26.892Z,968.00
2018-12-08T08:31:26.889Z,972.00
2018-12-08T08:32:26.865Z,1064.00
2018-12-08T08:33:28.469Z,884.00
2018-12-08T08:34:26.842Z,992.00
2018-12-08T08:35:27.191Z,964.00
2018-12-08T08:36:26.835Z,928.00
2018-12-08T08:37:26.810Z,940.00
2018-12-08T08:38:26.801Z,1044.00
2018-12-08T08:39:26.786Z,1196.00
2018-12-08T08:40:26.774Z,1204.00
2018-12-08T08:41:26.759Z,1400.00
2018-12-08T08:42:26.740Z,1524.00
2018-12-08T08:43:26.743Z,1708.00
2018-12-08T08:44:26.730Z,2008.00
2018-12-08T08:45:26.720Z,2228.00
2018-12-08T08:46:26.729Z,2296.00
2018-12-08T08:47:26.701Z,2524.00
2018-12-08T08:48:26.685Z,2624.00
2018-12-08T08:49:26.674Z,2352.00
2018-12-08T08:50:26.662Z,2296.00
2018-12-08T08:51:26.684Z,2300.00
2018-12-08T08:52:26.642Z,2304.00
2018-12-08T08:53:26.635Z,2520.00
2018-12-08T08:54:26.636Z,2168.00
2018-12-08T08:55:26.605Z,2308.00
2018-12-08T08:56:26.600Z,2472.00
2018-12-08T08:57:26.595Z,3280.00
2018-12-08T08:58:26.571Z,3268.00
2018-12-08T08:59:26.560Z,2788.00
2018-12-08T09:00:26.550Z,2236.00
2018-12-08T09:01:26.537Z,2016.00
2018-12-08T09:02:26.539Z,1844.00
2018-12-08T09:03:26.515Z,2284.00
2018-12-08T09:04:26.501Z,2048.00
2018-12-08T09:05:26.510Z,1656.00
2018-12-08T09:06:26.477Z,2360.00
2018-12-08T09:07:26.477Z,2268.00
2018-12-08T09:08:26.461Z,1640.00
2018-12-08T09:09:27.439Z,2464.00
2018-12-08T09:10:26.432Z,2336.00
2018-12-08T09:11:26.421Z,2384.00
2018-12-08T09:12:26.430Z,2668.00
2018-12-08T09:13:26.399Z,2304.00
2018-12-08T09:14:26.387Z,1996.00
2018-12-08T09:15:26.376Z,1900.00
2018-12-08T09:16:26.927Z,2124.00
2018-12-08T09:17:29.086Z,1656.00
2018-12-08T09:18:26.341Z,1168.00
2018-12-08T09:19:28.642Z,1496.00
2018-12-08T09:20:26.319Z,1660.00
2018-12-08T09:21:26.307Z,1932.00
2018-12-08T09:22:26.310Z,2048.00
2018-12-08T09:23:27.537Z,1720.00
2018-12-08T09:24:26.273Z,1772.00
2018-12-08T09:25:26.252Z,1836.00
2018-12-08T09:26:26.258Z,1472.00
2018-12-08T09:27:26.254Z,1512.00
2018-12-08T09:28:26.234Z,2244.00
2018-12-08T09:29:26.217Z,1740.00
2018-12-08T09:30:26.207Z,1412.00
2018-12-08T09:31:26.196Z,1296.00
2018-12-08T09:32:26.208Z,1088.00
2018-12-08T09:33:26.173Z,908.00
2018-12-08T09:34:26.227Z,776.00
2018-12-08T09:35:26.228Z,784.00
2018-12-08T09:36:26.179Z,820.00
2018-12-08T09:37:26.151Z,1044.00
2018-12-08T09:38:26.136Z,1216.00
2018-12-08T09:39:28.895Z,1404.00
2018-12-08T09:40:26.095Z,1516.00
2018-12-08T09:41:26.082Z,1656.00
2018-12-08T09:42:26.084Z,1728.00
2018-12-08T09:43:26.061Z,1508.00
2018-12-08T09:44:26.036Z,1560.00
2018-12-08T09:45:26.040Z,1692.00
2018-12-08T09:46:26.026Z,2624.00
2018-12-08T09:47:26.032Z,2432.00
2018-12-08T09:48:26.004Z,2272.00
2018-12-08T09:49:25.992Z,2252.00
2018-12-08T09:50:25.984Z,1960.00
2018-12-08T09:51:25.971Z,1884.00
2018-12-08T09:52:25.970Z,1708.00
2018-12-08T09:53:25.946Z,1956.00
2018-12-08T09:54:25.935Z,2324.00
2018-12-08T09:55:25.924Z,1756.00
2018-12-08T09:56:25.912Z,1412.00
2018-12-08T09:57:25.914Z,1176.00
2018-12-08T09:58:25.886Z,1112.00
2018-12-08T09:59:25.883Z,1080.00
2018-12-08T10:00:25.864Z,1256.00
2018-12-08T10:01:25.860Z,1608.00
2018-12-08T10:02:25.858Z,1056.00
2018-12-08T10:03:25.832Z,964.00
2018-12-08T10:04:25.827Z,1064.00
2018-12-08T10:05:25.815Z,1684.00
2018-12-08T10:06:25.796Z,2036.00
2018-12-08T10:07:25.803Z,1972.00
2018-12-08T10:08:25.775Z,1884.00
2018-12-08T10:09:25.762Z,1976.00
2018-12-08T10:10:25.756Z,2404.00
2018-12-08T10:11:25.743Z,2824.00
2018-12-08T10:12:25.744Z,3076.00
2018-12-08T10:13:25.716Z,2872.00
2018-12-08T10:14:25.706Z,2728.00
2018-12-08T10:15:25.702Z,2240.00
2018-12-08T10:16:25.685Z,1888.00
2018-12-08T10:17:25.689Z,1764.00
2018-12-08T10:18:25.661Z,1764.00
2018-12-08T10:19:25.653Z,1688.00
2018-12-08T10:20:25.639Z,1600.00
2018-12-08T10:21:25.618Z,1432.00
2018-12-08T10:22:25.628Z,1516.00
2018-12-08T10:23:25.607Z,1472.00
2018-12-08T10:24:25.596Z,1500.00
2018-12-08T10:25:28.604Z,1368.00
2018-12-08T10:26:25.571Z,1556.00
2018-12-08T10:27:25.601Z,1676.00
2018-12-08T10:28:25.533Z,1912.00
2018-12-08T10:29:25.539Z,2224.00
2018-12-08T10:30:25.525Z,2276.00
2018-12-08T10:31:25.520Z,1808.00
2018-12-08T10:32:27.576Z,1604.00
2018-12-08T10:33:25.494Z,1768.00
2018-12-08T10:34:25.514Z,1812.00
2018-12-08T10:35:25.470Z,2060.00
2018-12-08T10:36:25.457Z,1920.00
2018-12-08T10:37:25.464Z,1464.00
2018-12-08T10:38:25.439Z,1580.00
2018-12-08T10:39:25.425Z,1644.00
2018-12-08T10:40:25.413Z,1372.00
2018-12-08T10:41:25.409Z,952.00
2018-12-08T10:42:25.404Z,1076.00
2018-12-08T10:43:25.379Z,1324.00
2018-12-08T10:44:25.367Z,1188.00
2018-12-08T10:45:25.358Z,1460.00
2018-12-08T10:46:25.345Z,1340.00
2018-12-08T10:47:25.345Z,1340.00
2018-12-08T10:48:25.322Z,1312.00
2018-12-08T10:49:25.314Z,1060.00
2018-12-08T10:50:25.299Z,844.00
2018-12-08T10:51:25.289Z,1456.00
2018-12-08T10:52:25.290Z,1484.00
2018-12-08T10:53:25.274Z,1448.00
2018-12-08T10:54:25.239Z,1580.00
2018-12-08T10:55:25.241Z,1820.00
2018-12-08T10:56:25.227Z,2608.00
2018-12-08T10:57:25.235Z,2260.00
2018-12-08T10:58:25.204Z,2228.00
2018-12-08T10:59:25.181Z,2228.00
2018-12-08T11:00:25.182Z,1708.00
2018-12-08T11:01:25.171Z,2000.00
2018-12-08T11:02:25.175Z,2520.00
2018-12-08T11:03:25.177Z,2332.00
2018-12-08T11:04:25.137Z,2168.00
2018-12-08T11:05:25.119Z,2708.00
2018-12-08T11:06:25.114Z,3344.00
2018-12-08T11:07:25.139Z,2928.00
2018-12-08T11:08:25.094Z,2620.00
2018-12-08T11:09:25.092Z,2056.00
2018-12-08T11:10:25.070Z,2444.00
2018-12-08T11:11:25.058Z,2484.00
2018-12-08T11:12:25.048Z,1944.00
2018-12-08T11:13:25.053Z,1388.00
2018-12-08T11:14:25.024Z,1088.00
2018-12-08T11:15:25.012Z,1532.00
2018-12-08T11:16:25.001Z,1776.00
2018-12-08T11:17:24.990Z,1792.00
2018-12-08T11:18:24.996Z,1576.00
2018-12-08T11:19:24.959Z,1620.00
2018-12-08T11:20:24.957Z,1580.00
2018-12-08T11:21:24.945Z,1344.00
2018-12-08T11:22:24.934Z,1696.00
2018-12-08T11:23:24.938Z,2868.00
2018-12-08T11:24:24.918Z,2408.00
2018-12-08T11:25:24.899Z,1624.00
2018-12-08T11:26:24.889Z,1332.00
2018-12-08T11:27:24.877Z,1596.00
2018-12-08T11:28:24.882Z,2036.00
2018-12-08T11:29:24.856Z,1908.00
2018-12-08T11:30:24.845Z,1596.00
2018-12-08T11:31:24.827Z,2172.00
2018-12-08T11:32:24.824Z,2428.00
2018-12-08T11:33:24.831Z,2060.00
2018-12-08T11:34:24.801Z,1776.00
2018-12-08T11:35:24.788Z,2256.00
2018-12-08T11:36:24.779Z,1432.00
2018-12-08T11:37:24.763Z,1680.00
2018-12-08T11:38:24.764Z,1692.00
2018-12-08T11:39:24.742Z,1420.00
2018-12-08T11:40:24.730Z,1344.00
2018-12-08T11:41:24.719Z,1612.00
2018-12-08T11:42:25.742Z,2112.00
2018-12-08T11:43:24.714Z,1988.00
2018-12-08T11:44:24.685Z,1808.00
2018-12-08T11:45:24.676Z,2100.00
2018-12-08T11:46:24.667Z,1956.00
2018-12-08T11:47:24.653Z,2020.00
2018-12-08T11:48:24.652Z,992.00
2018-12-08T11:49:24.629Z,1064.00
2018-12-08T11:50:24.618Z,928.00
2018-12-08T11:51:24.607Z,1516.00
2018-12-08T11:52:24.594Z,1920.00
2018-12-08T11:53:24.587Z,2296.00
2018-12-08T11:54:24.572Z,2636.00
2018-12-08T11:55:30.142Z,2744.00
2018-12-08T11:56:25.545Z,1908.00
2018-12-08T11:57:24.539Z,1128.00
2018-12-08T11:58:24.554Z,1264.00
2018-12-08T11:59:24.517Z,1164.00
2018-12-08T12:00:24.516Z,1084.00
2018-12-08T12:01:24.517Z,1044.00
2018-12-08T12:02:24.485Z,912.00
2018-12-08T12:03:24.482Z,1260.00
2018-12-08T12:04:24.458Z,1684.00
2018-12-08T12:05:24.451Z,1292.00
2018-12-08T12:06:24.438Z,1176.00
2018-12-08T12:07:24.432Z,1428.00
2018-12-08T12:08:24.424Z,1364.00
2018-12-08T12:09:24.404Z,1280.00
2018-12-08T12:10:24.391Z,1428.00
2018-12-08T12:11:24.376Z,1808.00
2018-12-08T12:12:24.374Z,2000.00
2018-12-08T12:13:24.361Z,2800.00
2018-12-08T12:14:24.348Z,1984.00
2018-12-08T12:15:24.334Z,2604.00
2018-12-08T12:16:24.321Z,2028.00
2018-12-08T12:17:24.308Z,2188.00
2018-12-08T12:18:24.314Z,2288.00
2018-12-08T12:19:24.286Z,1764.00
2018-12-08T12:20:24.274Z,1120.00
2018-12-08T12:21:24.266Z,756.00
2018-12-08T12:22:24.251Z,696.00
2018-12-08T12:23:24.256Z,796.00
2018-12-08T12:24:24.228Z,940.00
2018-12-08T12:25:24.227Z,864.00
2018-12-08T12:26:24.211Z,1044.00
2018-12-08T12:27:24.196Z,1256.00
2018-12-08T12:28:24.198Z,1256.00
2018-12-08T12:29:24.183Z,1260.00
2018-12-08T12:30:24.161Z,1784.00
2018-12-08T12:31:24.154Z,1744.00
2018-12-08T12:32:24.139Z,1196.00
2018-12-08T12:33:24.141Z,1264.00
2018-12-08T12:34:24.115Z,1188.00
2018-12-08T12:35:24.092Z,1336.00
2018-12-08T12:36:24.094Z,1696.00
2018-12-08T12:37:24.174Z,1668.00
2018-12-08T12:38:24.087Z,1340.00
2018-12-08T12:39:26.102Z,1228.00
2018-12-08T12:40:24.046Z,1084.00
2018-12-08T12:41:24.042Z,984.00
2018-12-08T12:42:24.022Z,1060.00
2018-12-08T12:43:24.030Z,1112.00
2018-12-08T12:44:24.006Z,976.00
2018-12-08T12:45:23.991Z,932.00
2018-12-08T12:46:23.979Z,1068.00
2018-12-08T12:47:23.965Z,1048.00
2018-12-08T12:48:23.971Z,1164.00
2018-12-08T12:49:23.948Z,824.00
2018-12-08T12:50:23.937Z,784.00
2018-12-08T12:51:23.924Z,768.00
2018-12-08T12:52:23.910Z,620.00
2018-12-08T12:53:23.918Z,740.00
2018-12-08T12:54:23.891Z,584.00
2018-12-08T12:55:23.880Z,676.00
2018-12-08T12:56:23.868Z,732.00
2018-12-08T12:57:23.856Z,892.00
2018-12-08T12:58:23.857Z,840.00
2018-12-08T12:59:23.835Z,712.00
2018-12-08T13:00:23.823Z,696.00
2018-12-08T13:01:23.812Z,536.00
2018-12-08T13:02:23.799Z,456.00
2018-12-08T13:03:23.811Z,496.00
2018-12-08T13:04:23.776Z,484.00
2018-12-08T13:05:23.766Z,716.00
2018-12-08T13:06:23.754Z,724.00
2018-12-08T13:07:23.748Z,812.00
2018-12-08T13:08:23.735Z,900.00
2018-12-08T13:09:23.733Z,1036.00
2018-12-08T13:10:23.713Z,980.00
2018-12-08T13:11:23.703Z,1004.00
2018-12-08T13:12:23.686Z,828.00
2018-12-08T13:13:23.675Z,796.00
2018-12-08T13:14:23.715Z,908.00
2018-12-08T13:15:23.656Z,972.00
2018-12-08T13:16:23.637Z,876.00
2018-12-08T13:17:23.626Z,948.00
2018-12-08T13:18:23.615Z,872.00
2018-12-08T13:19:23.635Z,944.00
2018-12-08T13:20:23.592Z,944.00
2018-12-08T13:21:23.586Z,812.00
2018-12-08T13:22:23.572Z,984.00
2018-12-08T13:23:23.558Z,984.00
2018-12-08T13:24:23.564Z,884.00
2018-12-08T13:25:23.538Z,924.00
2018-12-08T13:26:23.536Z,752.00
2018-12-08T13:27:23.524Z,936.00
2018-12-08T13:28:23.502Z,884.00
2018-12-08T13:29:23.512Z,680.00
2018-12-08T13:30:23.482Z,620.00
2018-12-08T13:31:23.469Z,692.00
2018-12-08T13:32:23.456Z,772.00
2018-12-08T13:33:23.445Z,764.00
2018-12-08T13:34:23.448Z,1088.00
2018-12-08T13:35:23.425Z,1136.00
2018-12-08T13:36:23.412Z,1136.00
2018-12-08T13:37:23.406Z,1528.00
2018-12-08T13:38:23.531Z,1320.00
2018-12-08T13:39:23.419Z,1128.00
2018-12-08T13:40:23.362Z,1224.00
2018-12-08T13:41:23.357Z,1324.00
2018-12-08T13:42:23.346Z,1008.00
2018-12-08T13:43:23.334Z,832.00
2018-12-08T13:44:23.333Z,848.00
2018-12-08T13:45:23.310Z,824.00
2018-12-08T13:46:23.298Z,1072.00
2018-12-08T13:47:23.292Z,1056.00
2018-12-08T13:48:23.276Z,972.00
2018-12-08T13:49:23.277Z,1076.00
2018-12-08T13:50:23.253Z,1048.00
2018-12-08T13:51:23.243Z,920.00
2018-12-08T13:52:23.231Z,700.00
2018-12-08T13:53:23.220Z,716.00
2018-12-08T13:54:23.224Z,672.00
2018-12-08T13:55:23.205Z,624.00
2018-12-08T13:56:23.186Z,640.00
2018-12-08T13:57:23.174Z,616.00
2018-12-08T13:58:23.163Z,628.00
2018-12-08T13:59:23.176Z,612.00
2018-12-08T14:00:23.318Z,632.00
2018-12-08T14:01:23.129Z,724.00
2018-12-08T14:02:23.276Z,692.00
2018-12-08T14:03:23.182Z,656.00
2018-12-08T14:04:23.108Z,692.00
2018-12-08T14:05:23.092Z,552.00
2018-12-08T14:06:23.061Z,496.00
2018-12-08T14:07:23.075Z,396.00
2018-12-08T14:08:23.153Z,368.00
2018-12-08T14:09:23.048Z,348.00
2018-12-08T14:10:23.029Z,336.00
2018-12-08T14:11:23.013Z,292.00
2018-12-08T14:12:23.003Z,240.00
2018-12-08T14:13:22.991Z,248.00
2018-12-08T14:14:22.999Z,256.00
2018-12-08T14:15:22.969Z,276.00
2018-12-08T14:16:22.955Z,344.00
2018-12-08T14:17:22.948Z,360.00
2018-12-08T14:18:22.937Z,380.00
2018-12-08T14:19:22.938Z,360.00
2018-12-08T14:20:22.911Z,372.00
2018-12-08T14:21:22.908Z,368.00
2018-12-08T14:22:22.892Z,372.00
2018-12-08T14:23:22.882Z,416.00
2018-12-08T14:24:22.885Z,444.00
2018-12-08T14:25:22.850Z,420.00
2018-12-08T14:26:22.845Z,348.00
2018-12-08T14:27:22.832Z,376.00
2018-12-08T14:28:22.826Z,384.00
2018-12-08T14:29:22.829Z,348.00
2018-12-08T14:30:22.798Z,360.00
2018-12-08T14:31:22.787Z,368.00
2018-12-08T14:32:22.781Z,332.00
2018-12-08T14:33:22.772Z,320.00
2018-12-08T14:34:22.785Z,308.00
2018-12-08T14:35:22.748Z,312.00
2018-12-08T14:36:22.734Z,328.00
2018-12-08T14:37:22.719Z,364.00
2018-12-08T14:38:22.711Z,376.00
2018-12-08T14:39:22.730Z,304.00
2018-12-08T14:40:22.689Z,264.00
2018-12-08T14:41:22.679Z,292.00
2018-12-08T14:42:22.665Z,276.00
2018-12-08T14:43:22.668Z,272.00
2018-12-08T14:44:22.669Z,256.00
2018-12-08T14:45:22.634Z,236.00
2018-12-08T14:46:22.626Z,220.00
2018-12-08T14:47:22.619Z,232.00
2018-12-08T14:48:22.599Z,228.00
2018-12-08T14:49:22.613Z,212.00
2018-12-08T14:50:22.573Z,188.00
2018-12-08T14:51:22.565Z,152.00
2018-12-08T14:52:22.553Z,160.00
2018-12-08T14:53:22.554Z,172.00
2018-12-08T14:54:22.572Z,160.00
2018-12-08T14:55:22.517Z,136.00
2018-12-08T14:56:22.519Z,132.00
2018-12-08T14:57:22.499Z,128.00
2018-12-08T14:58:22.484Z,128.00
2018-12-08T14:59:22.501Z,132.00
2018-12-08T15:00:22.469Z,136.00
2018-12-08T15:01:22.455Z,120.00
2018-12-08T15:02:22.438Z,112.00
2018-12-08T15:03:22.431Z,104.00
2018-12-08T15:04:22.460Z,92.00
2018-12-08T15:05:22.407Z,88.00
2018-12-08T15:06:22.401Z,88.00
2018-12-08T15:07:22.380Z,76.00
2018-12-08T15:08:22.373Z,72.00
2018-12-08T15:09:22.406Z,64.00
2018-12-08T15:10:22.356Z,60.00
2018-12-08T15:11:22.353Z,52.00
2018-12-08T15:12:22.348Z,48.00
2018-12-08T15:13:22.313Z,52.00
2018-12-08T15:14:22.321Z,44.00
2018-12-08T15:15:22.297Z,44.00
2018-12-08T15:16:22.283Z,36.00
2018-12-08T15:17:22.275Z,32.00
2018-12-08T15:18:22.264Z,32.00
2018-12-08T15:19:22.299Z,28.00
2018-12-08T15:20:22.239Z,64.00
2018-12-08T15:21:22.244Z,60.00
2018-12-08T15:22:22.218Z,52.00
2018-12-08T15:23:22.208Z,56.00
2018-12-08T15:24:22.194Z,48.00
2018-12-08T15:25:22.199Z,56.00
2018-12-08T15:26:22.170Z,48.00
2018-12-08T15:27:22.158Z,44.00
2018-12-08T15:28:22.147Z,52.00
2018-12-08T15:29:22.169Z,44.00
2018-12-08T15:30:22.140Z,48.00
2018-12-08T15:31:22.111Z,48.00
2018-12-08T15:32:22.099Z,44.00
2018-12-08T15:33:22.085Z,40.00
2018-12-08T15:34:22.083Z,44.00
2018-12-08T15:35:22.097Z,44.00
2018-12-08T15:36:22.058Z,36.00
2018-12-08T15:37:22.031Z,44.00
2018-12-08T15:38:22.028Z,40.00
2018-12-08T15:39:22.017Z,40.00
2018-12-08T15:40:22.025Z,40.00
2018-12-08T15:41:22.005Z,44.00
2018-12-08T15:42:21.990Z,36.00
2018-12-08T15:43:21.993Z,36.00
2018-12-08T15:44:21.994Z,36.00
2018-12-08T15:45:21.991Z,36.00
2018-12-08T15:46:21.965Z,36.00
2018-12-08T15:47:21.925Z,40.00
2018-12-08T15:48:21.914Z,36.00
2018-12-08T15:49:21.906Z,36.00
2018-12-08T15:50:21.920Z,40.00
2018-12-08T15:51:21.887Z,36.00
2018-12-08T15:52:21.885Z,36.00
2018-12-08T15:53:21.857Z,36.00
2018-12-08T15:54:21.851Z,36.00
2018-12-08T15:55:21.863Z,36.00
2018-12-08T15:56:21.835Z,36.00
2018-12-08T15:57:21.816Z,36.00
2018-12-08T15:58:21.804Z,32.00
2018-12-08T15:59:21.797Z,40.00
2018-12-08T16:00:21.822Z,32.00
2018-12-08T16:01:21.771Z,36.00
2018-12-08T16:02:21.763Z,40.00
2018-12-08T16:03:21.749Z,32.00
2018-12-08T16:04:21.741Z,40.00
2018-12-08T16:05:21.745Z,40.00
2018-12-08T16:06:21.714Z,36.00
2018-12-08T16:07:21.720Z,36.00
2018-12-08T16:08:21.697Z,40.00
2018-12-08T16:09:21.682Z,40.00
2018-12-08T16:10:21.697Z,40.00
2018-12-08T16:11:21.655Z,36.00
2018-12-08T16:12:21.646Z,36.00
2018-12-08T16:13:21.635Z,36.00
2018-12-08T16:14:21.621Z,36.00
2018-12-08T16:15:21.644Z,40.00
2018-12-08T16:16:21.606Z,40.00
2018-12-08T16:17:21.597Z,44.00
2018-12-08T16:18:21.579Z,40.00
2018-12-08T16:19:21.564Z,44.00
2018-12-08T16:20:21.577Z,40.00
2018-12-08T16:21:21.542Z,36.00
2018-12-08T16:22:21.546Z,40.00
2018-12-08T16:23:21.523Z,40.00
2018-12-08T16:24:21.511Z,36.00
2018-12-08T16:25:21.517Z,40.00
2018-12-08T16:26:21.492Z,40.00
2018-12-08T16:27:21.480Z,40.00
2018-12-08T16:28:21.465Z,40.00
2018-12-08T16:29:21.479Z,40.00
2018-12-08T16:30:21.463Z,40.00
2018-12-08T16:31:21.433Z,36.00
2018-12-08T16:32:21.430Z,36.00
2018-12-08T16:33:21.408Z,36.00
2018-12-08T16:34:21.398Z,36.00
2018-12-08T16:35:21.404Z,44.00
2018-12-08T16:36:21.376Z,44.00
2018-12-08T16:37:21.367Z,40.00
2018-12-08T16:38:21.357Z,36.00
2018-12-08T16:39:21.346Z,44.00
2018-12-08T16:40:21.384Z,40.00
2018-12-08T16:41:21.320Z,40.00
2018-12-08T16:42:21.317Z,44.00
2018-12-08T16:43:21.296Z,40.00
2018-12-08T16:44:21.277Z,40.00
2018-12-08T16:45:21.297Z,36.00
2018-12-08T16:46:21.261Z,44.00
2018-12-08T16:47:21.269Z,44.00
2018-12-08T16:48:21.240Z,40.00
2018-12-08T16:49:21.232Z,40.00
2018-12-08T16:50:21.233Z,36.00
2018-12-08T16:51:21.198Z,36.00
2018-12-08T16:52:21.187Z,36.00
2018-12-08T16:53:21.176Z,36.00
2018-12-08T16:54:21.164Z,36.00
2018-12-08T16:55:21.169Z,36.00
2018-12-08T16:56:21.142Z,40.00
2018-12-08T16:57:21.132Z,36.00
2018-12-08T16:58:21.119Z,40.00
2018-12-08T16:59:21.110Z,36.00
2018-12-08T17:00:21.117Z,36.00
2018-12-08T17:01:21.085Z,36.00
2018-12-08T17:02:21.073Z,36.00
2018-12-08T17:03:21.068Z,36.00
2018-12-08T17:04:21.052Z,36.00
2018-12-08T17:05:21.051Z,36.00
2018-12-08T17:06:21.029Z,36.00
2018-12-08T17:07:21.018Z,36.00
2018-12-08T17:08:21.008Z,36.00
2018-12-08T17:09:20.998Z,40.00
2018-12-08T17:10:20.995Z,36.00
2018-12-08T17:11:20.974Z,44.00
2018-12-08T17:12:20.963Z,36.00
2018-12-08T17:13:20.950Z,40.00
2018-12-08T17:14:20.938Z,40.00
2018-12-08T17:15:21.007Z,36.00
2018-12-08T17:16:20.921Z,36.00
2018-12-08T17:17:20.907Z,40.00
2018-12-08T17:18:20.893Z,40.00
2018-12-08T17:19:20.886Z,40.00
2018-12-08T17:20:20.914Z,36.00
2018-12-08T17:21:20.863Z,36.00
2018-12-08T17:22:20.848Z,40.00
2018-12-08T17:23:20.836Z,40.00
2018-12-08T17:24:20.825Z,40.00
2018-12-08T17:25:20.821Z,40.00
2018-12-08T17:26:20.821Z,40.00
2018-12-08T17:27:20.792Z,40.00
2018-12-08T17:28:20.784Z,40.00
2018-12-08T17:29:20.769Z,40.00
2018-12-08T17:30:20.758Z,36.00
2018-12-08T17:31:20.767Z,36.00
2018-12-08T17:32:20.736Z,40.00